sensor_id;sensor_type;location;lat;lon;timestamp;pressure;altitude;pressure_sealevel;temperature;humidity
14041;BME280;7095;51.388;6.196;2023-02-16T00:01:02;56040.78;;;-145.32;100.00
14041;BME280;7095;51.388;6.196;2023-02-16T00:03:41;56026.88;;;-145.32;100.00
14041;BME280;7095;51.388;6.196;2023-02-16T00:06:09;55949.28;;;-145.32;100.00
14041;BME280;7095;51.388;6.196;2023-02-16T00:08:43;55953.25;;;-145.32;100.00
14041;BME280;7095;51.388;6.196;2023-02-16T00:11:18;55967.19;;;-145.32;100.00
14041;BME280;7095;51.388;6.196;2023-02-16T00:14:07;55909.50;;;-145.32;100.00
14041;BME280;7095;51.388;6.196;2023-02-16T00:16:36;55853.78;;;-145.32;100.00
14041;BME280;7095;51.388;6.196;2023-02-16T00:19:24;55804.06;;;-145.32;100.00
14041;BME280;7095;51.388;6.196;2023-02-16T00:21:54;55678.72;;;-145.32;100.00
14041;BME280;7095;51.388;6.196;2023-02-16T00:24:24;55662.81;;;-145.32;100.00
14041;BME280;7095;51.388;6.196;2023-02-16T00:26:53;55698.63;;;-145.32;100.00
14041;BME280;7095;51.388;6.196;2023-02-16T00:29:26;55670.75;;;-145.32;100.00
14041;BME280;7095;51.388;6.196;2023-02-16T00:31:56;55619.03;;;-145.32;100.00
14041;BME280;7095;51.388;6.196;2023-02-16T00:34:31;55640.91;;;-145.32;100.00
14041;BME280;7095;51.388;6.196;2023-02-16T00:37:02;55726.47;;;-145.32;100.00
14041;BME280;7095;51.388;6.196;2023-02-16T00:39:31;55654.84;;;-145.32;100.00
14041;BME280;7095;51.388;6.196;2023-02-16T00:42:01;55678.72;;;-145.32;100.00
14041;BME280;7095;51.388;6.196;2023-02-16T00:44:33;55746.34;;;-145.32;100.00
14041;BME280;7095;51.388;6.196;2023-02-16T00:47:12;55694.63;;;-145.32;100.00
14041;BME280;7095;51.388;6.196;2023-02-16T00:49:45;55730.44;;;-145.32;100.00
14041;BME280;7095;51.388;6.196;2023-02-16T00:52:31;55682.69;;;-145.32;100.00
14041;BME280;7095;51.388;6.196;2023-02-16T00:55:01;55704.59;;;-145.32;100.00
14041;BME280;7095;51.388;6.196;2023-02-16T00:57:33;55664.78;;;-145.32;100.00
14041;BME280;7095;51.388;6.196;2023-02-16T01:00:06;55658.81;;;-145.32;100.00
14041;BME280;7095;51.388;6.196;2023-02-16T01:02:35;55674.75;;;-145.32;100.00
14041;BME280;7095;51.388;6.196;2023-02-16T01:05:07;55744.38;;;-145.32;100.00
14041;BME280;7095;51.388;6.196;2023-02-16T01:07:36;55708.56;;;-145.32;100.00
14041;BME280;7095;51.388;6.196;2023-02-16T01:10:22;55692.66;;;-145.32;100.00
14041;BME280;7095;51.388;6.196;2023-02-16T01:13:09;55662.81;;;-145.32;100.00
14041;BME280;7095;51.388;6.196;2023-02-16T01:15:38;55668.78;;;-145.32;100.00
14041;BME280;7095;51.388;6.196;2023-02-16T01:18:07;55648.88;;;-145.32;100.00
14041;BME280;7095;51.388;6.196;2023-02-16T01:20:36;55630.97;;;-145.32;100.00
14041;BME280;7095;51.388;6.196;2023-02-16T01:23:07;55623.03;;;-145.32;100.00
14041;BME280;7095;51.388;6.196;2023-02-16T01:25:36;55674.75;;;-145.32;100.00
14041;BME280;7095;51.388;6.196;2023-02-16T01:28:16;55716.50;;;-145.32;100.00
14041;BME280;7095;51.388;6.196;2023-02-16T01:30:46;55750.34;;;-145.32;100.00
14041;BME280;7095;51.388;6.196;2023-02-16T01:33:14;55686.69;;;-145.32;100.00
14041;BME280;7095;51.388;6.196;2023-02-16T01:35:44;55690.66;;;-145.32;100.00
14041;BME280;7095;51.388;6.196;2023-02-16T01:38:17;55734.41;;;-145.32;100.00
14041;BME280;7095;51.388;6.196;2023-02-16T01:40:51;55742.38;;;-145.32;100.00
14041;BME280;7095;51.388;6.196;2023-02-16T01:43:25;55770.22;;;-145.32;100.00
14041;BME280;7095;51.388;6.196;2023-02-16T01:46:00;55754.31;;;-145.32;100.00
14041;BME280;7095;51.388;6.196;2023-02-16T01:48:30;55774.22;;;-145.32;100.00
14041;BME280;7095;51.388;6.196;2023-02-16T01:51:05;55722.47;;;-145.32;100.00
14041;BME280;7095;51.388;6.196;2023-02-16T01:53:37;55722.47;;;-145.32;100.00
14041;BME280;7095;51.388;6.196;2023-02-16T01:56:14;55766.25;;;-145.32;100.00
14041;BME280;7095;51.388;6.196;2023-02-16T01:58:49;55742.38;;;-145.32;100.00
14041;BME280;7095;51.388;6.196;2023-02-16T02:01:48;55730.44;;;-145.32;100.00
14041;BME280;7095;51.388;6.196;2023-02-16T02:04:26;55648.88;;;-145.32;100.00
14041;BME280;7095;51.388;6.196;2023-02-16T02:07:24;55682.69;;;-145.32;100.00
14041;BME280;7095;51.388;6.196;2023-02-16T02:10:02;55754.31;;;-145.32;100.00
14041;BME280;7095;51.388;6.196;2023-02-16T02:12:40;55808.03;;;-145.32;100.00
14041;BME280;7095;51.388;6.196;2023-02-16T02:15:12;55772.22;;;-145.32;100.00
14041;BME280;7095;51.388;6.196;2023-02-16T02:17:44;55847.81;;;-145.32;100.00
14041;BME280;7095;51.388;6.196;2023-02-16T02:20:20;55845.81;;;-145.32;100.00
14041;BME280;7095;51.388;6.196;2023-02-16T02:23:29;55875.66;;;-145.32;100.00
14041;BME280;7095;51.388;6.196;2023-02-16T02:29:52;55955.25;;;-145.32;100.00
14041;BME280;7095;51.388;6.196;2023-02-16T02:32:32;55909.50;;;-145.32;100.00
14041;BME280;7095;51.388;6.196;2023-02-16T02:35:24;55851.78;;;-145.32;100.00
14041;BME280;7095;51.388;6.196;2023-02-16T02:38:04;55861.75;;;-145.32;100.00
14041;BME280;7095;51.388;6.196;2023-02-16T02:40:46;55893.56;;;-145.32;100.00
14041;BME280;7095;51.388;6.196;2023-02-16T02:43:20;55802.06;;;-145.32;100.00
14041;BME280;7095;51.388;6.196;2023-02-16T02:45:54;55796.09;;;-145.32;100.00
14041;BME280;7095;51.388;6.196;2023-02-16T02:48:29;55833.88;;;-145.32;100.00
14041;BME280;7095;51.388;6.196;2023-02-16T02:50:59;55917.44;;;-145.32;100.00
14041;BME280;7095;51.388;6.196;2023-02-16T02:53:49;56032.84;;;-145.32;100.00
14041;BME280;7095;51.388;6.196;2023-02-16T02:56:43;56024.88;;;-145.32;100.00
14041;BME280;7095;51.388;6.196;2023-02-16T02:59:31;55955.25;;;-145.32;100.00
14041;BME280;7095;51.388;6.196;2023-02-16T03:02:22;55911.47;;;-145.32;100.00
14041;BME280;7095;51.388;6.196;2023-02-16T03:04:53;55939.34;;;-145.32;100.00
14041;BME280;7095;51.388;6.196;2023-02-16T03:07:24;55913.47;;;-145.32;100.00
14041;BME280;7095;51.388;6.196;2023-02-16T03:10:13;55806.03;;;-145.32;100.00
14041;BME280;7095;51.388;6.196;2023-02-16T03:13:01;55726.47;;;-145.32;100.00
14041;BME280;7095;51.388;6.196;2023-02-16T03:15:32;55664.78;;;-145.32;100.00
14041;BME280;7095;51.388;6.196;2023-02-16T03:18:04;55666.78;;;-145.32;100.00
14041;BME280;7095;51.388;6.196;2023-02-16T03:20:52;55579.25;;;-145.32;100.00
14041;BME280;7095;51.388;6.196;2023-02-16T03:23:39;55511.63;;;-145.32;100.00
14041;BME280;7095;51.388;6.196;2023-02-16T03:26:26;55491.72;;;-145.32;100.00
14041;BME280;7095;51.388;6.196;2023-02-16T03:29:15;55511.63;;;-145.32;100.00
14041;BME280;7095;51.388;6.196;2023-02-16T03:31:49;55451.94;;;-145.32;100.00
14041;BME280;7095;51.388;6.196;2023-02-16T03:34:20;55424.09;;;-145.32;100.00
14041;BME280;7095;51.388;6.196;2023-02-16T03:36:51;55364.41;;;-145.32;100.00
14041;BME280;7095;51.388;6.196;2023-02-16T03:39:20;55432.06;;;-145.32;100.00
14041;BME280;7095;51.388;6.196;2023-02-16T03:41:50;55374.38;;;-145.32;100.00
14041;BME280;7095;51.388;6.196;2023-02-16T03:44:19;55396.25;;;-145.32;100.00
14041;BME280;7095;51.388;6.196;2023-02-16T03:46:48;55434.03;;;-145.32;100.00
14041;BME280;7095;51.388;6.196;2023-02-16T03:49:16;55404.19;;;-145.32;100.00
14041;BME280;7095;51.388;6.196;2023-02-16T03:51:46;55372.38;;;-145.32;100.00
14041;BME280;7095;51.388;6.196;2023-02-16T03:54:15;55408.19;;;-145.32;100.00
14041;BME280;7095;51.388;6.196;2023-02-16T03:56:43;55394.25;;;-145.32;100.00
14041;BME280;7095;51.388;6.196;2023-02-16T03:59:12;55374.38;;;-145.32;100.00
14041;BME280;7095;51.388;6.196;2023-02-16T04:01:40;55436.03;;;-145.32;100.00
14041;BME280;7095;51.388;6.196;2023-02-16T04:04:09;55467.84;;;-145.32;100.00
14041;BME280;7095;51.388;6.196;2023-02-16T04:06:39;55424.09;;;-145.32;100.00
14041;BME280;7095;51.388;6.196;2023-02-16T04:09:08;55447.97;;;-145.32;100.00
14041;BME280;7095;51.388;6.196;2023-02-16T04:11:37;55491.72;;;-145.32;100.00
14041;BME280;7095;51.388;6.196;2023-02-16T04:14:25;55467.84;;;-145.32;100.00
14041;BME280;7095;51.388;6.196;2023-02-16T04:16:54;55483.78;;;-145.32;100.00
14041;BME280;7095;51.388;6.196;2023-02-16T04:19:23;55537.47;;;-145.32;100.00
14041;BME280;7095;51.388;6.196;2023-02-16T04:21:51;55567.31;;;-145.32;100.00
14041;BME280;7095;51.388;6.196;2023-02-16T04:24:21;55569.31;;;-145.32;100.00
14041;BME280;7095;51.388;6.196;2023-02-16T04:26:49;55557.38;;;-145.32;100.00
14041;BME280;7095;51.388;6.196;2023-02-16T04:29:18;55535.50;;;-145.32;100.00
14041;BME280;7095;51.388;6.196;2023-02-16T04:31:46;55537.47;;;-145.32;100.00
14041;BME280;7095;51.388;6.196;2023-02-16T04:34:16;55569.31;;;-145.32;100.00
14041;BME280;7095;51.388;6.196;2023-02-16T04:36:44;55561.34;;;-145.32;100.00
14041;BME280;7095;51.388;6.196;2023-02-16T04:39:12;55595.16;;;-145.32;100.00
14041;BME280;7095;51.388;6.196;2023-02-16T04:41:42;55609.09;;;-145.32;100.00
14041;BME280;7095;51.388;6.196;2023-02-16T04:44:11;55630.97;;;-145.32;100.00
14041;BME280;7095;51.388;6.196;2023-02-16T04:46:39;55666.78;;;-145.32;100.00
14041;BME280;7095;51.388;6.196;2023-02-16T04:49:07;55642.91;;;-145.32;100.00
14041;BME280;7095;51.388;6.196;2023-02-16T04:51:36;55621.03;;;-145.32;100.00
14041;BME280;7095;51.388;6.196;2023-02-16T04:54:06;55704.59;;;-145.32;100.00
14041;BME280;7095;51.388;6.196;2023-02-16T04:56:34;55750.34;;;-145.32;100.00
14041;BME280;7095;51.388;6.196;2023-02-16T04:59:04;55768.25;;;-145.32;100.00
14041;BME280;7095;51.388;6.196;2023-02-16T05:01:33;55909.50;;;-145.32;100.00
14041;BME280;7095;51.388;6.196;2023-02-16T05:04:01;55891.59;;;-145.32;100.00
14041;BME280;7095;51.388;6.196;2023-02-16T05:06:30;55977.13;;;-145.32;100.00
14041;BME280;7095;51.388;6.196;2023-02-16T05:08:58;55953.25;;;-145.32;100.00
14041;BME280;7095;51.388;6.196;2023-02-16T05:11:27;55941.31;;;-145.32;100.00
14041;BME280;7095;51.388;6.196;2023-02-16T05:14:18;55975.16;;;-145.32;100.00
14041;BME280;7095;51.388;6.196;2023-02-16T05:17:04;55981.13;;;-145.32;100.00
14041;BME280;7095;51.388;6.196;2023-02-16T05:19:35;56008.97;;;-145.32;100.00
14041;BME280;7095;51.388;6.196;2023-02-16T05:22:04;56032.84;;;-145.32;100.00
14041;BME280;7095;51.388;6.196;2023-02-16T05:24:32;56008.97;;;-145.32;100.00
14041;BME280;7095;51.388;6.196;2023-02-16T05:27:02;55933.38;;;-145.32;100.00
14041;BME280;7095;51.388;6.196;2023-02-16T05:29:33;55851.78;;;-145.32;100.00
14041;BME280;7095;51.388;6.196;2023-02-16T05:32:02;55905.50;;;-145.32;100.00
14041;BME280;7095;51.388;6.196;2023-02-16T05:34:31;55891.59;;;-145.32;100.00
14041;BME280;7095;51.388;6.196;2023-02-16T05:36:59;55869.69;;;-145.32;100.00
14041;BME280;7095;51.388;6.196;2023-02-16T05:39:28;55935.34;;;-145.32;100.00
14041;BME280;7095;51.388;6.196;2023-02-16T05:41:56;55961.22;;;-145.32;100.00
14041;BME280;7095;51.388;6.196;2023-02-16T05:44:25;56150.22;;;-145.32;100.00
14041;BME280;7095;51.388;6.196;2023-02-16T05:46:54;56243.75;;;-145.32;100.00
14041;BME280;7095;51.388;6.196;2023-02-16T05:49:23;56458.63;;;-145.32;100.00
14041;BME280;7095;51.388;6.196;2023-02-16T05:51:52;56641.69;;;-145.32;100.00
14041;BME280;7095;51.388;6.196;2023-02-16T05:54:20;56816.81;;;-145.32;100.00
14041;BME280;7095;51.388;6.196;2023-02-16T05:56:50;56884.47;;;-145.32;100.00
14041;BME280;7095;51.388;6.196;2023-02-16T05:59:18;57011.84;;;-145.32;100.00
14041;BME280;7095;51.388;6.196;2023-02-16T06:01:47;57111.34;;;-145.32;100.00
14041;BME280;7095;51.388;6.196;2023-02-16T06:04:20;57314.34;;;-145.32;100.00
14041;BME280;7095;51.388;6.196;2023-02-16T06:06:49;57465.63;;;-145.32;100.00
14041;BME280;7095;51.388;6.196;2023-02-16T06:09:17;57595.00;;;-145.32;100.00
14041;BME280;7095;51.388;6.196;2023-02-16T06:11:46;57758.22;;;-145.32;100.00
14041;BME280;7095;51.388;6.196;2023-02-16T06:14:16;57891.59;;;-145.32;100.00
14041;BME280;7095;51.388;6.196;2023-02-16T06:16:46;58255.91;;;-145.32;100.00
14041;BME280;7095;51.388;6.196;2023-02-16T06:19:16;58351.47;;;-145.32;100.00
14041;BME280;7095;51.388;6.196;2023-02-16T06:21:46;58636.16;;;-145.32;100.00
14041;BME280;7095;51.388;6.196;2023-02-16T06:24:15;58879.09;;;-145.32;100.00
14041;BME280;7095;51.388;6.196;2023-02-16T06:26:43;59074.22;;;-145.32;100.00
14041;BME280;7095;51.388;6.196;2023-02-16T06:29:12;59183.75;;;-145.32;100.00
14041;BME280;7095;51.388;6.196;2023-02-16T06:31:40;59173.81;;;-145.32;100.00
14041;BME280;7095;51.388;6.196;2023-02-16T06:34:09;59315.19;;;-145.32;100.00
14041;BME280;7095;51.388;6.196;2023-02-16T06:36:38;59440.66;;;-145.32;100.00
14041;BME280;7095;51.388;6.196;2023-02-16T06:39:10;59404.81;;;-145.32;100.00
14041;BME280;7095;51.388;6.196;2023-02-16T06:41:38;60123.81;;;-145.32;100.00
14041;BME280;7095;51.388;6.196;2023-02-16T06:44:08;59994.34;;;-145.32;100.00
14041;BME280;7095;51.388;6.196;2023-02-16T06:46:38;60189.56;;;-145.32;100.00
14041;BME280;7095;51.388;6.196;2023-02-16T06:49:10;61578.25;;;-145.32;100.00
14041;BME280;7095;51.388;6.196;2023-02-16T06:51:39;61161.78;;;-145.32;100.00
14041;BME280;7095;51.388;6.196;2023-02-16T06:54:07;60695.56;;;-145.32;100.00
14041;BME280;7095;51.388;6.196;2023-02-16T06:56:38;60382.78;;;-145.32;100.00
14041;BME280;7095;51.388;6.196;2023-02-16T06:59:07;60360.88;;;-145.32;100.00
14041;BME280;7095;51.388;6.196;2023-02-16T07:01:35;60552.13;;;-145.32;100.00
14041;BME280;7095;51.388;6.196;2023-02-16T07:04:04;60797.16;;;-145.32;100.00
14041;BME280;7095;51.388;6.196;2023-02-16T07:06:32;60775.25;;;-145.32;100.00
14041;BME280;7095;51.388;6.196;2023-02-16T07:09:01;60890.81;;;-145.32;100.00
14041;BME280;7095;51.388;6.196;2023-02-16T07:11:30;60607.91;;;-145.32;100.00
14041;BME280;7095;51.388;6.196;2023-02-16T07:14:00;61227.53;;;-145.32;100.00
14041;BME280;7095;51.388;6.196;2023-02-16T07:16:28;62285.78;;;-145.32;100.00
14041;BME280;7095;51.388;6.196;2023-02-16T07:18:57;62720.31;;;-145.32;100.00
14041;BME280;7095;51.388;6.196;2023-02-16T07:21:27;63025.34;;;-145.32;100.00
14041;BME280;7095;51.388;6.196;2023-02-16T07:23:57;63487.91;;;-145.32;100.00
14041;BME280;7095;51.388;6.196;2023-02-16T07:26:25;63936.56;;;-145.32;100.00
14041;BME280;7095;51.388;6.196;2023-02-16T07:28:54;64534.88;;;-145.32;100.00
14041;BME280;7095;51.388;6.196;2023-02-16T07:31:24;65695.88;;;-145.32;100.00
14041;BME280;7095;51.388;6.196;2023-02-16T07:33:52;66793.41;;;-145.32;100.00
14041;BME280;7095;51.388;6.196;2023-02-16T07:36:21;68019.09;;;-145.32;100.00
14041;BME280;7095;51.388;6.196;2023-02-16T07:38:49;68484.31;;;-145.32;100.00
14041;BME280;7095;51.388;6.196;2023-02-16T07:41:19;68845.78;;;-145.32;100.00
14041;BME280;7095;51.388;6.196;2023-02-16T07:43:48;69608.72;;;-145.32;100.00
14041;BME280;7095;51.388;6.196;2023-02-16T07:46:16;69652.69;;;-145.32;100.00
14041;BME280;7095;51.388;6.196;2023-02-16T07:48:47;69908.38;;;-145.32;100.00
14041;BME280;7095;51.388;6.196;2023-02-16T07:51:20;70419.81;;;-145.32;100.00
14041;BME280;7095;51.388;6.196;2023-02-16T07:53:49;70419.81;;;-145.32;100.00
14041;BME280;7095;51.388;6.196;2023-02-16T07:56:23;70156.09;;;-145.32;100.00
14041;BME280;7095;51.388;6.196;2023-02-16T07:58:52;69592.75;;;-145.32;100.00
14041;BME280;7095;51.388;6.196;2023-02-16T08:01:21;69714.59;;;-145.32;100.00
14041;BME280;7095;51.388;6.196;2023-02-16T08:03:51;69317.09;;;-145.32;100.00
14041;BME280;7095;51.388;6.196;2023-02-16T08:06:22;68819.81;;;-145.32;100.00
14041;BME280;7095;51.388;6.196;2023-02-16T08:08:59;68727.94;;;-145.32;100.00
14041;BME280;7095;51.388;6.196;2023-02-16T08:11:29;68692.00;;;-145.32;100.00
14041;BME280;7095;51.388;6.196;2023-02-16T08:13:58;68887.72;;;-145.32;100.00
14041;BME280;7095;51.388;6.196;2023-02-16T08:16:27;69616.72;;;-145.32;100.00
14041;BME280;7095;51.388;6.196;2023-02-16T08:18:59;70931.31;;;-145.32;100.00
14041;BME280;7095;51.388;6.196;2023-02-16T08:21:33;69710.59;;;-145.32;100.00
14041;BME280;7095;51.388;6.196;2023-02-16T08:24:07;67891.31;;;-145.32;100.00
14041;BME280;7095;51.388;6.196;2023-02-16T08:26:37;66869.25;;;-145.32;100.00
14041;BME280;7095;51.388;6.196;2023-02-16T08:29:08;65967.25;;;-145.32;100.00
14041;BME280;7095;51.388;6.196;2023-02-16T08:31:39;64756.25;;;-145.32;100.00
14041;BME280;7095;51.388;6.196;2023-02-16T08:34:09;64331.44;;;-145.32;100.00
14041;BME280;7095;51.388;6.196;2023-02-16T08:36:38;63705.25;;;-145.32;100.00
14041;BME280;7095;51.388;6.196;2023-02-16T08:39:10;62273.81;;;-145.32;100.00
14041;BME280;7095;51.388;6.196;2023-02-16T08:41:40;60936.63;;;-145.32;100.00
14041;BME280;7095;51.388;6.196;2023-02-16T08:44:10;59912.69;;;-145.32;100.00
14041;BME280;7095;51.388;6.196;2023-02-16T08:46:40;58914.94;;;-145.32;100.00
14041;BME280;7095;51.388;6.196;2023-02-16T08:49:11;57700.50;;;-145.32;100.00
14041;BME280;7095;51.388;6.196;2023-02-16T08:51:42;57043.69;;;-145.32;100.00
14041;BME280;7095;51.388;6.196;2023-02-16T08:54:14;56928.25;;;-145.32;100.00
14041;BME280;7095;51.388;6.196;2023-02-16T08:56:44;56703.38;;;-145.32;100.00
14041;BME280;7095;51.388;6.196;2023-02-16T08:59:15;56379.03;;;-145.32;100.00
14041;BME280;7095;51.388;6.196;2023-02-16T09:01:45;56012.94;;;-145.32;100.00
14041;BME280;7095;51.388;6.196;2023-02-16T09:04:16;55963.22;;;-145.32;100.00
14041;BME280;7095;51.388;6.196;2023-02-16T09:06:46;55969.19;;;-145.32;100.00
14041;BME280;7095;51.388;6.196;2023-02-16T09:09:16;55720.50;;;-145.32;100.00
14041;BME280;7095;51.388;6.196;2023-02-16T09:11:45;55579.25;;;-145.32;100.00
14041;BME280;7095;51.388;6.196;2023-02-16T09:14:14;55483.78;;;-145.32;100.00
14041;BME280;7095;51.388;6.196;2023-02-16T09:16:44;55428.06;;;-145.32;100.00
14041;BME280;7095;51.388;6.196;2023-02-16T09:19:16;55201.31;;;-145.32;100.00
14041;BME280;7095;51.388;6.196;2023-02-16T09:21:45;55173.47;;;-145.32;100.00
14041;BME280;7095;51.388;6.196;2023-02-16T09:24:14;55177.44;;;-145.32;100.00
14041;BME280;7095;51.388;6.196;2023-02-16T09:26:43;55101.84;;;-145.32;100.00
14041;BME280;7095;51.388;6.196;2023-02-16T09:29:13;55079.97;;;-145.32;100.00
14041;BME280;7095;51.388;6.196;2023-02-16T09:31:42;55089.94;;;-145.32;100.00
14041;BME280;7095;51.388;6.196;2023-02-16T09:34:18;55008.38;;;-145.32;100.00
14041;BME280;7095;51.388;6.196;2023-02-16T09:36:47;54954.69;;;-145.32;100.00
14041;BME280;7095;51.388;6.196;2023-02-16T09:39:17;55002.41;;;-145.32;100.00
14041;BME280;7095;51.388;6.196;2023-02-16T09:42:03;54952.69;;;-145.32;100.00
14041;BME280;7095;51.388;6.196;2023-02-16T09:44:42;54962.63;;;-145.32;100.00
14041;BME280;7095;51.388;6.196;2023-02-16T09:47:20;54932.78;;;-145.32;100.00
14041;BME280;7095;51.388;6.196;2023-02-16T09:49:52;54928.81;;;-145.32;100.00
14041;BME280;7095;51.388;6.196;2023-02-16T09:52:29;54891.03;;;-145.32;100.00
14041;BME280;7095;51.388;6.196;2023-02-16T09:55:04;54833.34;;;-145.32;100.00
14041;BME280;7095;51.388;6.196;2023-02-16T09:57:41;54835.34;;;-145.32;100.00
14041;BME280;7095;51.388;6.196;2023-02-16T10:00:25;54849.25;;;-145.32;100.00
14041;BME280;7095;51.388;6.196;2023-02-16T10:03:03;54799.53;;;-145.32;100.00
14041;BME280;7095;51.388;6.196;2023-02-16T10:05:44;54755.78;;;-145.32;100.00
14041;BME280;7095;51.388;6.196;2023-02-16T10:08:17;54795.56;;;-145.32;100.00
14041;BME280;7095;51.388;6.196;2023-02-16T10:10:54;54749.81;;;-145.32;100.00
14041;BME280;7095;51.388;6.196;2023-02-16T10:13:31;54751.81;;;-145.32;100.00
14041;BME280;7095;51.388;6.196;2023-02-16T10:16:04;54791.59;;;-145.32;100.00
14041;BME280;7095;51.388;6.196;2023-02-16T10:18:40;54839.31;;;-145.32;100.00
14041;BME280;7095;51.388;6.196;2023-02-16T10:21:15;54867.16;;;-145.32;100.00
14041;BME280;7095;51.388;6.196;2023-02-16T10:23:49;54906.94;;;-145.32;100.00
14041;BME280;7095;51.388;6.196;2023-02-16T10:26:23;54994.47;;;-145.32;100.00
14041;BME280;7095;51.388;6.196;2023-02-16T10:28:54;55087.94;;;-145.32;100.00
14041;BME280;7095;51.388;6.196;2023-02-16T10:31:29;55231.16;;;-145.32;100.00
14041;BME280;7095;51.388;6.196;2023-02-16T10:34:11;55330.59;;;-145.32;100.00
14041;BME280;7095;51.388;6.196;2023-02-16T10:36:55;55412.16;;;-145.32;100.00
14041;BME280;7095;51.388;6.196;2023-02-16T10:39:33;55491.72;;;-145.32;100.00
14041;BME280;7095;51.388;6.196;2023-02-16T10:42:13;55567.31;;;-145.32;100.00
14041;BME280;7095;51.388;6.196;2023-02-16T10:44:54;55682.69;;;-145.32;100.00
14041;BME280;7095;51.388;6.196;2023-02-16T10:47:31;55873.69;;;-145.32;100.00
14041;BME280;7095;51.388;6.196;2023-02-16T10:50:00;55969.19;;;-145.32;100.00
14041;BME280;7095;51.388;6.196;2023-02-16T10:52:33;55941.31;;;-145.32;100.00
14041;BME280;7095;51.388;6.196;2023-02-16T10:55:03;55881.63;;;-145.32;100.00
14041;BME280;7095;51.388;6.196;2023-02-16T10:57:32;55951.28;;;-145.32;100.00
14041;BME280;7095;51.388;6.196;2023-02-16T11:00:05;55959.22;;;-145.32;100.00
14041;BME280;7095;51.388;6.196;2023-02-16T11:02:38;55816.00;;;-145.32;100.00
14041;BME280;7095;51.388;6.196;2023-02-16T11:05:30;55899.53;;;-145.32;100.00
14041;BME280;7095;51.388;6.196;2023-02-16T11:08:01;55817.97;;;-145.32;100.00
14041;BME280;7095;51.388;6.196;2023-02-16T11:10:35;55861.75;;;-145.32;100.00
14041;BME280;7095;51.388;6.196;2023-02-16T11:13:05;55945.31;;;-145.32;100.00
14041;BME280;7095;51.388;6.196;2023-02-16T11:15:36;55921.44;;;-145.32;100.00
14041;BME280;7095;51.388;6.196;2023-02-16T11:18:19;56056.72;;;-145.32;100.00
14041;BME280;7095;51.388;6.196;2023-02-16T11:20:53;56104.47;;;-145.32;100.00
14041;BME280;7095;51.388;6.196;2023-02-16T11:23:25;56124.34;;;-145.32;100.00
14041;BME280;7095;51.388;6.196;2023-02-16T11:25:57;56162.16;;;-145.32;100.00
14041;BME280;7095;51.388;6.196;2023-02-16T11:28:28;56271.59;;;-145.32;100.00
14041;BME280;7095;51.388;6.196;2023-02-16T11:31:02;56245.72;;;-145.32;100.00
14041;BME280;7095;51.388;6.196;2023-02-16T11:33:32;56341.22;;;-145.32;100.00
14041;BME280;7095;51.388;6.196;2023-02-16T11:36:03;56398.94;;;-145.32;100.00
14041;BME280;7095;51.388;6.196;2023-02-16T11:38:57;56400.94;;;-145.32;100.00
14041;BME280;7095;51.388;6.196;2023-02-16T11:41:27;56494.44;;;-145.32;100.00
14041;BME280;7095;51.388;6.196;2023-02-16T11:43:56;56377.06;;;-145.32;100.00
14041;BME280;7095;51.388;6.196;2023-02-16T11:46:25;56518.31;;;-145.32;100.00
14041;BME280;7095;51.388;6.196;2023-02-16T11:48:54;56128.34;;;-145.32;100.00
14041;BME280;7095;51.388;6.196;2023-02-16T11:51:31;56048.75;;;-145.32;100.00
14041;BME280;7095;51.388;6.196;2023-02-16T11:54:04;55790.13;;;-145.32;100.00
14041;BME280;7095;51.388;6.196;2023-02-16T11:56:34;55642.91;;;-145.32;100.00
14041;BME280;7095;51.388;6.196;2023-02-16T11:59:14;55443.97;;;-145.32;100.00
14041;BME280;7095;51.388;6.196;2023-02-16T12:01:56;55354.47;;;-145.32;100.00
14041;BME280;7095;51.388;6.196;2023-02-16T12:04:37;55424.09;;;-145.32;100.00
14041;BME280;7095;51.388;6.196;2023-02-16T12:07:17;55585.22;;;-145.32;100.00
14041;BME280;7095;51.388;6.196;2023-02-16T12:09:56;55559.34;;;-145.32;100.00
14041;BME280;7095;51.388;6.196;2023-02-16T12:12:32;55491.72;;;-145.32;100.00
14041;BME280;7095;51.388;6.196;2023-02-16T12:15:13;55601.13;;;-145.32;100.00
14041;BME280;7095;51.388;6.196;2023-02-16T12:17:55;55730.44;;;-145.32;100.00
14041;BME280;7095;51.388;6.196;2023-02-16T12:20:42;55829.91;;;-145.32;100.00
14041;BME280;7095;51.388;6.196;2023-02-16T12:23:21;55917.44;;;-145.32;100.00
14041;BME280;7095;51.388;6.196;2023-02-16T12:26:03;55935.34;;;-145.32;100.00
14041;BME280;7095;51.388;6.196;2023-02-16T12:28:40;56114.41;;;-145.32;100.00
14041;BME280;7095;51.388;6.196;2023-02-16T12:31:17;56192.00;;;-145.32;100.00
14041;BME280;7095;51.388;6.196;2023-02-16T12:34:04;56410.88;;;-145.32;100.00
14041;BME280;7095;51.388;6.196;2023-02-16T12:36:44;56502.41;;;-145.32;100.00
14041;BME280;7095;51.388;6.196;2023-02-16T12:39:23;56526.28;;;-145.32;100.00
14041;BME280;7095;51.388;6.196;2023-02-16T12:42:09;56617.81;;;-145.32;100.00
14041;BME280;7095;51.388;6.196;2023-02-16T12:44:44;56633.75;;;-145.32;100.00
14041;BME280;7095;51.388;6.196;2023-02-16T12:47:19;56605.88;;;-145.32;100.00
14041;BME280;7095;51.388;6.196;2023-02-16T12:49:53;56609.84;;;-145.32;100.00
14041;BME280;7095;51.388;6.196;2023-02-16T12:52:30;56518.31;;;-145.32;100.00
14041;BME280;7095;51.388;6.196;2023-02-16T12:55:09;56482.50;;;-145.32;100.00
14041;BME280;7095;51.388;6.196;2023-02-16T12:57:48;56500.41;;;-145.32;100.00
14041;BME280;7095;51.388;6.196;2023-02-16T13:00:23;56462.59;;;-145.32;100.00
14041;BME280;7095;51.388;6.196;2023-02-16T13:02:58;56566.09;;;-145.32;100.00
14041;BME280;7095;51.388;6.196;2023-02-16T13:05:35;56723.28;;;-145.32;100.00
14041;BME280;7095;51.388;6.196;2023-02-16T13:08:11;56876.50;;;-145.32;100.00
14041;BME280;7095;51.388;6.196;2023-02-16T13:10:52;57326.28;;;-145.32;100.00
14041;BME280;7095;51.388;6.196;2023-02-16T13:13:26;57891.59;;;-145.32;100.00
14041;BME280;7095;51.388;6.196;2023-02-16T13:16:00;58437.06;;;-145.32;100.00